createdAt,value
2018-11-26T00:01:13.433Z,40.67
2018-11-26T00:03:41.481Z,11.80
2018-11-26T00:06:09.529Z,38.83
2018-11-26T00:08:37.678Z,30.03
2018-11-26T00:11:43.689Z,43.50
2018-11-26T00:14:11.791Z,19.47
2018-11-26T00:16:39.969Z,28.63
2018-11-26T00:19:07.985Z,54.53
2018-11-26T00:21:36.279Z,55.30
2018-11-26T00:24:05.694Z,48.57
2018-11-26T00:26:33.755Z,44.70
2018-11-26T00:29:01.800Z,46.23
2018-11-26T00:31:29.834Z,48.80
2018-11-26T00:33:57.882Z,49.90
2018-11-26T00:36:26.147Z,51.47
2018-11-26T00:38:54.223Z,27.83
2018-11-26T00:41:22.277Z,25.53
2018-11-26T00:43:50.360Z,43.33
2018-11-26T00:46:18.649Z,47.47
2018-11-26T00:48:46.712Z,51.00
2018-11-26T00:51:14.807Z,20.37
2018-11-26T00:53:42.849Z,43.93
2018-11-26T00:56:10.985Z,37.97
2018-11-26T00:58:39.411Z,53.50
2018-11-26T01:01:07.469Z,36.67
2018-11-26T01:03:35.702Z,48.03
2018-11-26T01:06:03.841Z,28.20
2018-11-26T01:08:31.885Z,64.00
2018-11-26T01:10:59.958Z,45.77
2018-11-26T01:13:28.132Z,48.20
2018-11-26T01:15:56.223Z,44.13
2018-11-26T01:18:24.269Z,41.57
2018-11-26T01:20:52.495Z,20.77
2018-11-26T01:23:20.626Z,19.13
2018-11-26T01:25:48.787Z,43.47
2018-11-26T01:28:16.891Z,57.73
2018-11-26T01:30:45.034Z,44.53
2018-11-26T01:33:13.270Z,41.20
2018-11-26T01:35:41.574Z,51.17
2018-11-26T01:38:09.724Z,46.57
2018-11-26T01:40:43.269Z,35.53
2018-11-26T01:43:11.310Z,56.33
2018-11-26T01:45:39.382Z,40.07
2018-11-26T01:48:07.882Z,15.60
2018-11-26T01:50:36.031Z,28.53
2018-11-26T01:53:04.621Z,39.43
2018-11-26T01:55:32.769Z,58.23
2018-11-26T01:58:00.940Z,28.43
2018-11-26T02:00:29.975Z,52.80
2018-11-26T02:02:58.113Z,44.53
2018-11-26T02:05:26.209Z,51.93
2018-11-26T02:07:54.483Z,50.77
2018-11-26T02:10:22.637Z,55.27
2018-11-26T02:12:50.683Z,43.87
2018-11-26T02:15:30.385Z,55.80
2018-11-26T02:17:58.428Z,34.37
2018-11-26T02:20:26.476Z,58.80
2018-11-26T02:22:54.579Z,49.27
2018-11-26T02:25:22.653Z,32.07
2018-11-26T02:27:50.730Z,28.93
2018-11-26T02:30:19.170Z,51.90
2018-11-26T02:32:47.197Z,33.10
2018-11-26T02:35:15.258Z,36.87
2018-11-26T02:37:46.247Z,39.30
2018-11-26T02:40:21.409Z,21.53
2018-11-26T02:42:49.689Z,16.57
2018-11-26T02:45:17.847Z,34.93
2018-11-26T02:47:45.905Z,43.10
2018-11-26T02:50:14.664Z,48.37
2018-11-26T02:52:42.718Z,19.23
2018-11-26T02:55:10.830Z,18.97
2018-11-26T02:57:39.061Z,23.17
2018-11-26T03:00:08.997Z,17.73
2018-11-26T03:02:37.046Z,38.93
2018-11-26T03:05:06.257Z,32.90
2018-11-26T03:07:34.303Z,12.37
2018-11-26T03:10:02.494Z,31.87
2018-11-26T03:12:30.610Z,28.57
2018-11-26T03:14:58.696Z,45.57
2018-11-26T03:17:26.764Z,33.67
2018-11-26T03:19:54.805Z,15.63
2018-11-26T03:22:22.872Z,18.00
2018-11-26T03:24:51.086Z,32.87
2018-11-26T03:27:19.183Z,19.27
2018-11-26T03:29:48.071Z,19.30
2018-11-26T03:32:16.574Z,29.60
2018-11-26T03:34:44.680Z,19.97
2018-11-26T03:37:12.887Z,21.47
2018-11-26T03:39:41.436Z,16.07
2018-11-26T03:42:09.508Z,12.80
2018-11-26T03:44:37.583Z,7.80
2018-11-26T03:47:05.697Z,17.23
2018-11-26T03:49:33.756Z,32.97
2018-11-26T03:52:01.962Z,11.87
2018-11-26T03:54:30.946Z,15.77
2018-11-26T03:56:59.034Z,22.30
2018-11-26T03:59:27.077Z,29.87
2018-11-26T04:01:55.399Z,38.07
2018-11-26T04:04:23.441Z,10.20
2018-11-26T04:06:51.514Z,22.87
2018-11-26T04:09:19.627Z,20.37
2018-11-26T04:11:47.746Z,15.20
2018-11-26T04:14:15.812Z,22.20
2018-11-26T04:16:44.222Z,35.43
2018-11-26T04:19:12.321Z,32.30
2018-11-26T04:21:40.357Z,36.47
2018-11-26T04:24:08.449Z,35.27
2018-11-26T04:26:36.486Z,52.30
2018-11-26T04:29:04.742Z,37.83
2018-11-26T04:31:32.803Z,42.77
2018-11-26T04:34:00.829Z,40.40
2018-11-26T04:36:28.928Z,47.63
2018-11-26T04:38:57.364Z,48.70
2018-11-26T04:41:25.447Z,41.90
2018-11-26T04:43:53.524Z,33.47
2018-11-26T04:46:21.684Z,46.97
2018-11-26T04:48:49.723Z,38.43
2018-11-26T04:51:17.839Z,22.93
2018-11-26T04:53:46.152Z,44.80
2018-11-26T04:56:14.194Z,41.63
2018-11-26T04:58:42.287Z,31.13
2018-11-26T05:01:10.345Z,45.80
2018-11-26T05:03:38.380Z,32.90
2018-11-26T05:06:06.433Z,18.30
2018-11-26T05:08:34.596Z,38.37
2018-11-26T05:11:02.694Z,25.57
2018-11-26T05:13:30.778Z,25.70
2018-11-26T05:15:59.254Z,29.50
2018-11-26T05:18:27.328Z,33.93
2018-11-26T05:20:55.501Z,43.67
2018-11-26T05:23:23.574Z,31.87
2018-11-26T05:25:51.632Z,38.47
2018-11-26T05:28:19.744Z,44.03
2018-11-26T05:30:47.837Z,44.43
2018-11-26T05:33:15.861Z,42.20
2018-11-26T05:35:43.935Z,39.40
2018-11-26T05:38:12.032Z,42.43
2018-11-26T05:40:40.114Z,35.40
2018-11-26T05:43:08.208Z,40.97
2018-11-26T05:45:36.512Z,30.47
2018-11-26T05:48:04.708Z,41.83
2018-11-26T05:50:32.892Z,47.17
2018-11-26T05:53:01.074Z,34.27
2018-11-26T05:55:29.601Z,39.10
2018-11-26T05:57:57.669Z,43.30
2018-11-26T06:00:32.430Z,40.50
2018-11-26T06:03:00.468Z,41.27
2018-11-26T06:05:28.553Z,46.70
2018-11-26T06:07:57.005Z,45.60
2018-11-26T06:10:25.132Z,47.97
2018-11-26T06:12:53.323Z,42.60
2018-11-26T06:15:21.557Z,54.63
2018-11-26T06:17:49.738Z,50.57
2018-11-26T06:20:17.900Z,42.93
2018-11-26T06:22:46.984Z,42.67
2018-11-26T06:25:17.123Z,52.00
2018-11-26T06:27:46.054Z,43.13
2018-11-26T06:30:16.292Z,41.60
2018-11-26T06:32:44.567Z,30.03
2018-11-26T06:35:21.534Z,61.80
2018-11-26T06:37:49.639Z,45.83
2018-11-26T06:40:17.708Z,54.93
2018-11-26T06:42:45.823Z,41.30
2018-11-26T06:45:15.013Z,43.00
2018-11-26T06:47:43.134Z,31.30
2018-11-26T06:50:12.516Z,54.57
2018-11-26T06:52:40.634Z,55.60
2018-11-26T06:55:10.373Z,36.80
2018-11-26T06:57:38.697Z,41.43
2018-11-26T07:00:09.188Z,47.97
2018-11-26T07:02:37.248Z,49.13
2018-11-26T07:05:08.884Z,41.50
2018-11-26T07:07:36.959Z,37.73
2018-11-26T07:10:05.610Z,47.23
2018-11-26T07:12:33.675Z,43.30
2018-11-26T07:15:02.105Z,32.87
2018-11-26T07:17:30.176Z,48.23
2018-11-26T07:19:58.259Z,22.27
2018-11-26T07:22:26.400Z,49.33
2018-11-26T07:24:54.460Z,48.13
2018-11-26T07:27:22.529Z,54.87
2018-11-26T07:29:50.601Z,45.20
2018-11-26T07:32:18.669Z,63.53
2018-11-26T07:34:47.334Z,48.50
2018-11-26T07:37:15.416Z,20.10
2018-11-26T07:39:43.493Z,33.33
2018-11-26T07:42:11.573Z,42.93
2018-11-26T07:44:40.410Z,45.77
2018-11-26T07:47:08.492Z,28.93
2018-11-26T07:49:36.672Z,48.30
2018-11-26T07:52:05.740Z,56.20
2018-11-26T07:54:34.091Z,50.07
2018-11-26T07:57:02.216Z,38.30
2018-11-26T07:59:30.651Z,49.57
2018-11-26T08:01:58.750Z,44.90
2018-11-26T08:04:26.777Z,33.47
2018-11-26T08:06:54.876Z,47.57
2018-11-26T08:09:22.912Z,25.00
2018-11-26T08:11:50.975Z,25.43
2018-11-26T08:14:19.091Z,49.93
2018-11-26T08:16:47.197Z,42.67
2018-11-26T08:19:16.537Z,34.63
2018-11-26T08:21:44.709Z,50.47
2018-11-26T08:24:12.799Z,50.33
2018-11-26T08:26:40.851Z,49.13
2018-11-26T08:29:09.056Z,32.60
2018-11-26T08:31:37.126Z,39.53
2018-11-26T08:34:05.466Z,50.33
2018-11-26T08:36:39.205Z,41.37
2018-11-26T08:39:10.658Z,36.27
2018-11-26T08:41:43.058Z,23.13
2018-11-26T08:44:12.226Z,29.70
2018-11-26T08:46:45.880Z,34.87
2018-11-26T08:49:20.131Z,25.87
2018-11-26T08:51:48.620Z,28.00
2018-11-26T08:54:16.769Z,26.57
2018-11-26T08:56:44.797Z,39.77
2018-11-26T08:59:13.303Z,30.23
2018-11-26T09:01:44.118Z,36.63
2018-11-26T09:04:17.449Z,27.53
2018-11-26T09:06:45.527Z,16.03
2018-11-26T09:09:13.653Z,35.70
2018-11-26T09:11:41.791Z,31.23
2018-11-26T09:14:09.869Z,24.50
2018-11-26T09:16:37.928Z,30.13
2018-11-26T09:19:06.207Z,16.77
2018-11-26T09:21:34.253Z,31.50
2018-11-26T09:24:02.306Z,43.27
2018-11-26T09:26:30.644Z,40.80
2018-11-26T09:28:58.710Z,25.27
2018-11-26T09:31:26.744Z,13.23
2018-11-26T09:33:54.815Z,30.83
2018-11-26T09:36:22.893Z,35.73
2018-11-26T09:38:50.940Z,11.40
2018-11-26T09:41:19.482Z,30.23
2018-11-26T09:43:47.518Z,12.43
2018-11-26T09:46:15.574Z,16.03
2018-11-26T09:48:44.060Z,15.87
2018-11-26T09:51:14.351Z,22.97
2018-11-26T09:53:40.277Z,37.87
2018-11-26T09:56:08.504Z,28.80
2018-11-26T09:58:36.661Z,29.73
2018-11-26T10:01:05.219Z,32.20
2018-11-26T10:03:33.853Z,24.80
2018-11-26T10:06:01.952Z,21.43
2018-11-26T10:08:30.024Z,25.63
2018-11-26T10:10:58.185Z,32.47
2018-11-26T10:13:26.309Z,22.57
2018-11-26T10:15:54.552Z,35.07
2018-11-26T10:18:22.793Z,32.17
2018-11-26T10:20:50.841Z,28.60
2018-11-26T10:23:18.894Z,33.15
2018-11-26T10:25:47.012Z,25.77
2018-11-26T10:28:15.100Z,12.20
2018-11-26T10:30:43.177Z,26.73
2018-11-26T10:33:14.829Z,30.00
2018-11-26T10:35:39.394Z,22.37
2018-11-26T10:38:07.513Z,27.53
2018-11-26T10:40:35.612Z,26.70
2018-11-26T10:43:03.676Z,12.43
2018-11-26T10:45:31.741Z,15.60
2018-11-26T10:47:59.891Z,19.30
2018-11-26T10:50:27.953Z,7.80
2018-11-26T10:52:57.225Z,15.73
2018-11-26T10:55:28.599Z,8.57
2018-11-26T10:57:56.679Z,21.83
2018-11-26T11:00:30.693Z,14.15
2018-11-26T11:02:58.765Z,19.13
2018-11-26T11:05:27.062Z,14.90
2018-11-26T11:07:55.281Z,17.03
2018-11-26T11:10:26.675Z,22.03
2018-11-26T11:12:54.750Z,10.00
2018-11-26T11:15:22.804Z,15.43
2018-11-26T11:17:50.891Z,27.40
2018-11-26T11:20:20.027Z,13.83
2018-11-26T11:22:48.088Z,7.83
2018-11-26T11:25:17.045Z,12.63
2018-11-26T11:27:45.164Z,21.40
2018-11-26T11:30:15.262Z,20.80
2018-11-26T11:32:43.368Z,23.47
2018-11-26T11:35:12.287Z,25.20
2018-11-26T11:37:40.890Z,14.33
2018-11-26T11:40:13.630Z,9.93
2018-11-26T11:42:41.686Z,21.17
2018-11-26T11:45:11.030Z,12.23
2018-11-26T11:47:39.083Z,4.00
2018-11-26T11:50:08.899Z,11.63
2018-11-26T11:52:37.836Z,18.80
2018-11-26T11:55:07.804Z,22.22
2018-11-26T11:57:36.023Z,25.70
2018-11-26T12:00:05.642Z,25.70
2018-11-26T12:02:38.046Z,22.47
2018-11-26T12:05:07.206Z,7.43
2018-11-26T12:07:35.524Z,10.53
2018-11-26T12:10:04.449Z,15.80
2018-11-26T12:12:32.498Z,18.70
2018-11-26T12:15:00.539Z,29.97
2018-11-26T12:17:28.733Z,22.90
2018-11-26T12:19:56.780Z,17.63
2018-11-26T12:22:24.854Z,19.30
2018-11-26T12:24:53.238Z,9.43
2018-11-26T12:27:21.293Z,22.90
2018-11-26T12:29:49.332Z,16.17
2018-11-26T12:32:17.613Z,15.30
2018-11-26T12:34:45.718Z,13.47
2018-11-26T12:37:13.796Z,11.43
2018-11-26T12:39:41.874Z,8.37
2018-11-26T12:42:09.955Z,14.30
2018-11-26T12:44:44.834Z,22.07
2018-11-26T12:47:12.883Z,11.47
2018-11-26T12:49:41.050Z,16.53
2018-11-26T12:52:09.118Z,19.60
2018-11-26T12:54:37.247Z,16.87
2018-11-26T12:57:06.074Z,10.20
2018-11-26T12:59:34.279Z,13.93
2018-11-26T13:02:02.347Z,19.23
2018-11-26T13:04:31.282Z,20.93
2018-11-26T13:06:59.590Z,28.47
2018-11-26T13:09:28.954Z,30.13
2018-11-26T13:11:57.001Z,29.10
2018-11-26T13:14:25.075Z,26.40
2018-11-26T13:16:53.140Z,22.90
2018-11-26T13:19:21.353Z,10.37
2018-11-26T13:21:49.394Z,11.57
2018-11-26T13:24:17.482Z,29.93
2018-11-26T13:26:45.682Z,27.73
2018-11-26T13:29:14.381Z,19.40
2018-11-26T13:31:42.215Z,29.33
2018-11-26T13:34:10.317Z,21.90
2018-11-26T13:36:38.488Z,13.97
2018-11-26T13:39:08.555Z,23.63
2018-11-26T13:41:37.031Z,13.87
2018-11-26T13:44:05.753Z,35.97
2018-11-26T13:46:33.834Z,23.83
2018-11-26T13:49:01.941Z,32.63
2018-11-26T13:51:30.045Z,24.83
2018-11-26T13:53:59.632Z,30.67
2018-11-26T13:56:27.683Z,35.17
2018-11-26T13:58:55.738Z,32.57
2018-11-26T14:01:23.822Z,34.67
2018-11-26T14:03:51.859Z,23.00
2018-11-26T14:06:19.938Z,34.23
2018-11-26T14:08:48.332Z,25.07
2018-11-26T14:11:16.610Z,16.33
2018-11-26T14:13:44.675Z,26.63
2018-11-26T14:16:12.928Z,34.20
2018-11-26T14:18:41.062Z,20.10
2018-11-26T14:21:09.142Z,22.37
2018-11-26T14:23:37.880Z,18.27
2018-11-26T14:26:05.970Z,15.37
2018-11-26T14:28:34.110Z,22.07
2018-11-26T14:31:02.379Z,26.97
2018-11-26T14:33:30.476Z,18.43
2018-11-26T14:35:58.611Z,25.00
2018-11-26T14:38:26.818Z,13.67
2018-11-26T14:40:55.649Z,17.37
2018-11-26T14:43:23.811Z,15.60
2018-11-26T14:45:52.185Z,12.20
2018-11-26T14:48:20.253Z,11.63
2018-11-26T14:50:48.446Z,11.07
2018-11-26T14:53:17.141Z,21.20
2018-11-26T14:55:45.210Z,26.70
2018-11-26T14:58:13.334Z,23.17
2018-11-26T15:00:42.980Z,27.93
2018-11-26T15:03:11.168Z,27.97
2018-11-26T15:05:39.265Z,30.20
2018-11-26T15:08:07.901Z,28.40
2018-11-26T15:10:39.703Z,20.50
2018-11-26T15:13:08.158Z,14.30
2018-11-26T15:15:36.336Z,11.00
2018-11-26T15:18:04.438Z,14.70
2018-11-26T15:20:33.015Z,30.63
2018-11-26T15:23:01.917Z,22.30
2018-11-26T15:25:32.386Z,20.33
2018-11-26T15:28:03.618Z,21.07
2018-11-26T15:30:31.722Z,24.70
2018-11-26T15:32:59.803Z,16.30
2018-11-26T15:35:34.748Z,17.83
2018-11-26T15:38:02.817Z,27.07
2018-11-26T15:40:31.827Z,27.27
2018-11-26T15:42:59.886Z,23.63
2018-11-26T15:45:28.763Z,21.30
2018-11-26T15:47:59.337Z,21.40
2018-11-26T15:50:27.403Z,21.13
2018-11-26T15:52:55.478Z,25.73
2018-11-26T15:55:23.938Z,4.83
2018-11-26T15:57:52.045Z,26.07
2018-11-26T16:00:21.943Z,29.03
2018-11-26T16:02:50.399Z,28.93
2018-11-26T16:05:20.678Z,26.07
2018-11-26T16:07:49.398Z,29.43
2018-11-26T16:10:17.475Z,31.03
2018-11-26T16:12:47.284Z,24.87
2018-11-26T16:15:17.133Z,27.70
2018-11-26T16:17:45.192Z,22.33
2018-11-26T16:20:14.644Z,18.37
2018-11-26T16:22:42.750Z,12.60
2018-11-26T16:25:12.193Z,12.57
2018-11-26T16:27:40.289Z,10.67
2018-11-26T16:30:10.449Z,17.93
2018-11-26T16:32:38.674Z,18.20
2018-11-26T16:35:19.196Z,23.97
2018-11-26T16:37:47.249Z,23.00
2018-11-26T16:40:16.166Z,25.43
2018-11-26T16:42:44.275Z,17.20
2018-11-26T16:45:13.853Z,20.07
2018-11-26T16:47:42.142Z,12.37
2018-11-26T16:50:11.533Z,22.37
2018-11-26T16:52:39.631Z,22.03
2018-11-26T16:55:09.256Z,33.03
2018-11-26T16:57:37.386Z,21.83
2018-11-26T17:00:09.874Z,14.57
2018-11-26T17:02:38.196Z,14.17
2018-11-26T17:05:08.384Z,19.27
2018-11-26T17:07:36.420Z,15.33
2018-11-26T17:10:05.658Z,18.20
2018-11-26T17:12:33.764Z,28.60
2018-11-26T17:15:01.909Z,20.37
2018-11-26T17:17:30.246Z,17.63
2018-11-26T17:19:58.300Z,20.20
2018-11-26T17:22:26.764Z,13.47
2018-11-26T17:24:54.849Z,34.77
2018-11-26T17:27:22.916Z,13.10
2018-11-26T17:29:51.262Z,14.13
2018-11-26T17:32:19.446Z,22.47
2018-11-26T17:34:47.544Z,31.83
2018-11-26T17:37:15.573Z,17.23
2018-11-26T17:39:43.674Z,16.87
2018-11-26T17:42:11.762Z,27.43
2018-11-26T17:44:39.830Z,20.37
2018-11-26T17:47:07.889Z,9.30
2018-11-26T17:49:35.934Z,12.93
2018-11-26T17:52:04.041Z,5.37
2018-11-26T17:54:32.078Z,13.40
2018-11-26T17:57:00.149Z,6.47
2018-11-26T17:59:28.340Z,6.10
2018-11-26T18:01:56.412Z,20.37
2018-11-26T18:04:25.011Z,15.50
2018-11-26T18:06:53.082Z,17.50
2018-11-26T18:09:22.875Z,15.97
2018-11-26T18:11:49.241Z,12.20
2018-11-26T18:14:17.357Z,9.03
2018-11-26T18:16:45.461Z,9.43
2018-11-26T18:19:13.770Z,13.63
2018-11-26T18:21:42.193Z,13.20
2018-11-26T18:24:10.952Z,10.30
2018-11-26T18:26:39.053Z,15.53
2018-11-26T18:29:08.321Z,17.27
2018-11-26T18:31:36.406Z,7.03
2018-11-26T18:34:04.470Z,22.83
2018-11-26T18:36:32.840Z,18.27
2018-11-26T18:39:00.965Z,13.07
2018-11-26T18:41:29.030Z,10.70
2018-11-26T18:43:57.118Z,19.30
2018-11-26T18:46:25.334Z,10.63
2018-11-26T18:48:53.581Z,12.03
2018-11-26T18:51:21.734Z,13.93
2018-11-26T18:53:50.019Z,16.73
2018-11-26T18:56:18.198Z,16.20
2018-11-26T18:58:47.025Z,17.57
2018-11-26T19:01:15.191Z,14.50
2018-11-26T19:03:43.843Z,19.20
2018-11-26T19:06:12.143Z,15.30
2018-11-26T19:08:40.420Z,17.63
2018-11-26T19:11:11.632Z,19.03
2018-11-26T19:13:49.982Z,20.73
2018-11-26T19:16:20.509Z,19.43
2018-11-26T19:18:48.720Z,7.17
2018-11-26T19:21:16.922Z,10.00
2018-11-26T19:23:45.033Z,23.10
2018-11-26T19:26:13.134Z,18.70
2018-11-26T19:28:41.233Z,15.67
2018-11-26T19:31:10.126Z,21.13
2018-11-26T19:33:38.306Z,24.30
2018-11-26T19:36:07.112Z,15.60
2018-11-26T19:38:35.334Z,25.97
2018-11-26T19:41:03.411Z,20.17
2018-11-26T19:43:31.475Z,22.53
2018-11-26T19:45:59.799Z,21.13
2018-11-26T19:48:27.890Z,15.43
2018-11-26T19:50:55.933Z,23.33
2018-11-26T19:53:24.214Z,18.87
2018-11-26T19:55:52.942Z,20.90
2018-11-26T19:58:21.017Z,19.27
2018-11-26T20:00:49.100Z,18.83
2018-11-26T20:03:22.837Z,24.13
2018-11-26T20:06:02.678Z,26.07
2018-11-26T20:08:30.749Z,22.60
2018-11-26T20:10:58.831Z,23.83
2018-11-26T20:13:27.246Z,24.80
2018-11-26T20:15:55.654Z,22.20
2018-11-26T20:18:28.329Z,18.97
2018-11-26T20:20:51.961Z,22.80
2018-11-26T20:23:20.351Z,22.13
2018-11-26T20:25:48.394Z,22.17
2018-11-26T20:28:16.860Z,23.90
2018-11-26T20:30:44.915Z,22.47
2018-11-26T20:33:12.999Z,26.70
2018-11-26T20:35:42.429Z,27.97
2018-11-26T20:38:12.038Z,25.77
2018-11-26T20:40:40.117Z,20.33
2018-11-26T20:43:09.902Z,21.50
2018-11-26T20:45:39.425Z,19.07
2018-11-26T20:48:08.305Z,26.00
2018-11-26T20:50:36.531Z,20.43
2018-11-26T20:53:04.669Z,32.57
2018-11-26T20:55:32.819Z,31.00
2018-11-26T20:58:00.877Z,31.17
2018-11-26T21:00:29.361Z,19.20
2018-11-26T21:03:04.270Z,23.60
2018-11-26T21:05:32.685Z,19.80
2018-11-26T21:08:00.774Z,35.37
2018-11-26T21:10:28.849Z,20.73
2018-11-26T21:12:57.090Z,35.90
2018-11-26T21:15:25.191Z,23.53
2018-11-26T21:17:54.380Z,28.23
2018-11-26T21:20:25.206Z,40.07
2018-11-26T21:22:53.754Z,30.93
2018-11-26T21:25:22.027Z,25.33
2018-11-26T21:27:50.225Z,34.33
2018-11-26T21:30:19.029Z,26.80
2018-11-26T21:32:47.225Z,26.17
2018-11-26T21:35:16.358Z,29.50
2018-11-26T21:37:45.554Z,30.17
2018-11-26T21:40:20.050Z,32.77
2018-11-26T21:42:42.912Z,33.37
2018-11-26T21:45:13.208Z,8.77
2018-11-26T21:47:41.314Z,20.40
2018-11-26T21:50:12.022Z,23.70
2018-11-26T21:52:40.496Z,31.77
2018-11-26T21:55:12.090Z,23.07
2018-11-26T21:57:40.159Z,22.73
2018-11-26T22:00:40.861Z,30.57
2018-11-26T22:03:10.365Z,26.43
2018-11-26T22:05:39.155Z,28.80
2018-11-26T22:08:07.845Z,33.17
2018-11-26T22:10:37.004Z,28.83
2018-11-26T22:13:06.005Z,27.00
2018-11-26T22:15:34.162Z,24.40
2018-11-26T22:18:02.339Z,38.50
2018-11-26T22:20:31.130Z,26.30
2018-11-26T22:22:59.197Z,26.07
2018-11-26T22:25:27.557Z,26.07
2018-11-26T22:27:55.657Z,27.50
2018-11-26T22:30:25.682Z,24.80
2018-11-26T22:32:53.746Z,30.60
2018-11-26T22:35:21.802Z,26.87
2018-11-26T22:37:50.084Z,23.23
2018-11-26T22:40:19.019Z,26.10
2018-11-26T22:42:47.174Z,31.60
2018-11-26T22:45:45.997Z,34.43
2018-11-26T22:48:14.216Z,23.17
2018-11-26T22:50:44.337Z,29.07
2018-11-26T22:53:12.392Z,30.63
2018-11-26T22:55:40.546Z,25.07
2018-11-26T22:58:10.212Z,23.67
2018-11-26T23:00:47.146Z,19.03
2018-11-26T23:03:16.768Z,25.60
2018-11-26T23:05:44.801Z,23.00
2018-11-26T23:08:12.957Z,32.03
2018-11-26T23:10:41.202Z,30.83
2018-11-26T23:13:09.631Z,33.90
2018-11-26T23:15:38.853Z,29.17
2018-11-26T23:18:07.236Z,24.60
2018-11-26T23:20:35.316Z,27.13
2018-11-26T23:23:03.375Z,29.07
2018-11-26T23:25:31.871Z,22.10
2018-11-26T23:27:59.942Z,27.60
2018-11-26T23:30:28.910Z,19.97
2018-11-26T23:32:58.165Z,24.93
2018-11-26T23:35:26.221Z,20.73
2018-11-26T23:37:54.322Z,27.15
2018-11-26T23:40:22.367Z,28.53
2018-11-26T23:42:50.939Z,27.53
2018-11-26T23:45:20.170Z,27.77
2018-11-26T23:47:48.330Z,32.50
2018-11-26T23:50:16.945Z,28.40
2018-11-26T23:52:45.397Z,28.87
2018-11-26T23:55:18.296Z,25.07
2018-11-26T23:57:46.449Z,29.30
